M I D A S
Marine Information and Data Acquisition System
Tripno 451 of the Zeeleeuw from 2003-03-27 07:26:41 to 2003-03-27 16:33:47
Back to CruiseResearch ActivitiesStationsMapUnderway DataData graphs

EquipmentUnitsComment
TimeDGPSUTC
LatitudeDGPSDM.mWGS84
LongitudeDGPSDM.mWGS84
HeadingGyrodeg 
SOGDGPSknotsSpeed over ground
COGDGPSdegCourse over ground
DepthEcho soundermeters200 kHz
Missing or incorrect values are displayed as -999
Navigation data collected by the RV Zeeleeuw from 2003-03-27 07:26:41 to 2003-03-27 16:33:47
Time Latitude Longitude Heading SOG COG Depth
2003-03-27 07:27:44 51°13.599 2°56.104 127   183 10
2003-03-27 07:28:44 51°13.598 2°56.103 115.1 0.1 204 10.2
2003-03-27 07:29:45 51°13.605 2°56.073 114.1 2.4 293 -999
2003-03-27 07:30:45 51°13.625 2°55.98 116.2 4.5 289 -999
2003-03-27 07:31:45 51°13.662 2°55.87 129.5 4.9 303 -999
2003-03-27 07:32:44 51°13.68 2°55.83 112.6 0.1 27 11.8
2003-03-27 07:33:45 51°13.687 2°55.785 93.3 2.6 275 -999
2003-03-27 07:34:44 51°13.687 2°55.74 70.6 0.3 285 13.7
2003-03-27 07:35:44 51°13.698 2°55.746 28.5 1.3 16 13.7
2003-03-27 07:36:44 51°13.732 2°55.735 336.7 2.7 333 12.1
2003-03-27 07:37:44 51°13.79 2°55.674 329.3 5.1 326 12.6
2003-03-27 07:38:44 51°13.873 2°55.606 342.5 6 337 12.4
2003-03-27 07:39:44 51°13.968 2°55.544 343.3 6.2 338 12.3
2003-03-27 07:40:44 51°14.064 2°55.479 337.7 6.2 333 12.1
2003-03-27 07:41:44 51°14.154 2°55.399 337.4 6.3 332 12.5
2003-03-27 07:42:44 51°14.238 2°55.3 317.5 6.2 314 12.5
2003-03-27 07:43:44 51°14.307 2°55.167 315.3 6.3 310 12.7
2003-03-27 07:44:44 51°14.367 2°55.035 311.3 6.3 307 12.8
2003-03-27 07:45:44 51°14.447 2°54.895 304.1 8.6 306 13
2003-03-27 07:46:44 51°14.527 2°54.672 299.1 10 298 12.7
2003-03-27 07:47:44 51°14.608 2°54.433 298.9 10.2 298 12.7
2003-03-27 07:48:44 51°14.691 2°54.192 299 11 298 12.7
2003-03-27 07:49:44 51°14.783 2°53.918 299 11.9 298 12.3
2003-03-27 07:50:44 51°14.872 2°53.637 298.9 11.9 297 12.3
2003-03-27 07:51:44 51°14.962 2°53.356 299 11.9 297 12.7
2003-03-27 07:52:44 51°15.052 2°53.075 299.1 11.9 297 12.7
2003-03-27 07:53:44 51°15.142 2°52.797 299.2 11.9 297 13.3
2003-03-27 07:54:44 51°15.231 2°52.507 298.3 11.8 296 13.9
2003-03-27 07:55:44 51°15.319 2°52.229 298.3 11.8 296 14.4
2003-03-27 07:56:44 51°15.421 2°51.956 305.6 12.5 303 14.8
2003-03-27 07:57:44 51°15.539 2°51.671 305.5 13 304 15.3
2003-03-27 07:58:44 51°15.668 2°51.395 309.9 13.1 308 15.6
2003-03-27 07:59:44 51°15.801 2°51.123 309.8 13.1 308 15.6
2003-03-27 08:00:44 51°15.937 2°50.853 310.4 13.1 309 15.6
2003-03-27 08:01:44 51°16.072 2°50.583 310.4 12.9 308 13.2
2003-03-27 08:02:44 51°16.205 2°50.315 310.3 13 308 12.4
2003-03-27 08:03:44 51°16.34 2°50.046 310.5 12.9 308 13.4
2003-03-27 08:04:44 51°16.484 2°49.792 316.1 13 315 14.5
2003-03-27 08:05:44 51°16.636 2°49.544 315.7 13.1 314 16.5
2003-03-27 08:06:45 51°16.792 2°49.29 315.7 13.2 314 11.6
2003-03-27 08:07:44 51°16.942 2°49.037 315.7 13.4 313 13.2
2003-03-27 08:08:44 51°17.097 2°48.779 317.9 13.5 316 13.4
2003-03-27 08:09:44 51°17.261 2°48.536 318.3 13.4 317 12.6
2003-03-27 08:10:44 51°17.422 2°48.295 318.5 13.4 317 12
2003-03-27 08:11:44 51°17.576 2°48.038 310.5 13.3 309 12.2
2003-03-27 08:12:44 51°17.712 2°47.76 310 13.4 308 12.9
2003-03-27 08:13:44 51°17.824 2°47.456 294.6 13.2 293 14
2003-03-27 08:14:44 51°17.869 2°47.117 279.4 12.9 277 14
2003-03-27 08:15:44 51°17.9 2°46.779 281.6 13 280 16.7
2003-03-27 08:16:44 51°17.94 2°46.436 281.9 13.1 280 19.4
2003-03-27 08:17:44 51°17.981 2°46.092 282.3 13.1 281 18.7
2003-03-27 08:18:44 51°18.024 2°45.747 282.9 13.2 281 20.8
2003-03-27 08:19:44 51°18.049 2°45.461 269.7 9.6 270 21.5
2003-03-27 08:20:44 51°18.048 2°45.228 288.4 7.7 286 22.1
2003-03-27 08:21:44 51°18.111 2°45.137 336 4.2 337 22.5
2003-03-27 08:22:44 51°18.158 2°45.117 353 2.1 343 22.5
2003-03-27 08:23:44 51°18.175 2°45.119 354.5 1.1 1 22.8
2003-03-27 08:24:44 51°18.191 2°45.12 350.8 1.1 356 22.7
2003-03-27 08:25:44 51°18.207 2°45.119 346.9 1.2 353 22.9
2003-03-27 08:26:44 51°18.231 2°45.115 348.9 1.6 355 22.7
2003-03-27 08:27:44 51°18.263 2°45.11 356.3 2.1 358 22.7
2003-03-27 08:28:44 51°18.3 2°45.11 358.6 2.4 359 22.5
2003-03-27 08:29:44 51°18.342 2°45.111 0.5 2.7 1 22.2
2003-03-27 08:30:44 51°18.39 2°45.116 9.3 3.1 8 21.8
2003-03-27 08:31:44 51°18.441 2°45.139 28.7 3.3 22 22.3
2003-03-27 08:32:44 51°18.487 2°45.184 39.9 3.3 34 22
2003-03-27 08:33:44 51°18.534 2°45.233 41.4 3.3 36 21.1
2003-03-27 08:34:44 51°18.574 2°45.287 42.8 3.1 41 22
2003-03-27 08:35:44 51°18.614 2°45.334 40.6 2.9 36 22.6
2003-03-27 08:36:44 51°18.655 2°45.379 37.6 3 33 22.5
2003-03-27 08:37:44 51°18.697 2°45.422 38 3.1 32 22.2
2003-03-27 08:38:45 51°18.74 2°45.471 44.1 3.2 37 22.5
2003-03-27 08:39:45 51°18.78 2°45.528 50.7 3.2 43 21.9
2003-03-27 08:40:45 51°18.816 2°45.588 57.5 3.1 49 22.4
2003-03-27 08:41:45 51°18.849 2°45.648 62.3 3 55 21.8
2003-03-27 08:42:45 51°18.876 2°45.716 63.8 3.1 57 22.4
2003-03-27 08:43:45 51°18.906 2°45.784 58.5 3.2 54 22.7
2003-03-27 08:44:45 51°18.941 2°45.851 50.9 3.2 46 22.7
2003-03-27 08:45:45 51°18.98 2°45.91 46 3.2 43 23.3
2003-03-27 08:46:45 51°19.019 2°45.957 38.4 2.9 38 23.1
2003-03-27 08:47:45 51°19.056 2°46.004 38.6 2.7 36 22.8
2003-03-27 08:48:45 51°19.093 2°46.052 37.1 3 33 23.4
2003-03-27 08:49:45 51°19.14 2°46.088 35.9 3.1 32 23.4
2003-03-27 08:50:45 51°19.184 2°46.129 36.2 3 32 22.7
2003-03-27 08:51:45 51°19.229 2°46.169 37.1 3 33 22.9
2003-03-27 08:52:45 51°19.269 2°46.216 40.6 3.1 37 22.2
2003-03-27 08:53:45 51°19.308 2°46.269 47.1 3.1 42 22.6
2003-03-27 08:54:45 51°19.346 2°46.325 50.8 3.1 45 22.6
2003-03-27 08:55:45 51°19.382 2°46.386 53.1 3.1 47 21.9
2003-03-27 08:56:45 51°19.416 2°46.449 52.9 3.1 47 22.9
2003-03-27 08:57:45 51°19.452 2°46.504 49.7 3.1 44 23.4
2003-03-27 08:58:45 51°19.49 2°46.56 45.8 3.1 42 23.3
2003-03-27 08:59:45 51°19.531 2°46.612 42 3.1 38 23.3
2003-03-27 09:00:45 51°19.572 2°46.663 40.8 3.1 38 23.5
2003-03-27 09:01:45 51°19.613 2°46.712 41.8 3.1 37 23.5
2003-03-27 09:02:45 51°19.65 2°46.77 52.9 3 45 23.3
2003-03-27 09:03:45 51°19.677 2°46.822 68.6 2.4 58 23.4
2003-03-27 09:04:45 51°19.692 2°46.877 83.8 2.2 66 23.4
2003-03-27 09:05:45 51°19.703 2°46.932 93.4 2.2 78 23.6
2003-03-27 09:06:45 51°19.708 2°46.996 98.6 2.4 84 23.7
2003-03-27 09:07:45 51°19.706 2°47.07 114.6 3 98 24.1
2003-03-27 09:08:45 51°19.684 2°47.137 150.1 2.9 132 24.3
2003-03-27 09:09:45 51°19.647 2°47.163 190.9 2.3 176 24.5
2003-03-27 09:10:45 51°19.609 2°47.15 203.3 2.3 195 24.3
2003-03-27 09:11:45 51°19.575 2°47.138 201.7 2.1 193 24.4
2003-03-27 09:12:45 51°19.54 2°47.128 195.8 2 186 24.4
2003-03-27 09:13:45 51°19.506 2°47.126 192.1 2 181 24.3
2003-03-27 09:14:45 51°19.474 2°47.127 191.6 2 180 24.2
2003-03-27 09:15:45 51°19.44 2°47.123 196.8 2 188 24.2
2003-03-27 09:16:45 51°19.404 2°47.114 199.9 2.1 192 24.1
2003-03-27 09:17:45 51°19.371 2°47.101 199.8 2 194 24.1
2003-03-27 09:18:45 51°19.343 2°47.092 202.9 2 196 24
2003-03-27 09:19:45 51°19.31 2°47.076 208.7 2 203 24
2003-03-27 09:20:45 51°19.28 2°47.047 216.7 2 214 24
2003-03-27 09:21:45 51°19.254 2°47.015 225.7 2 224 24
2003-03-27 09:22:45 51°19.234 2°46.973 236.9 2 238 23.8
2003-03-27 09:23:45 51°19.221 2°46.925 248.8 2.1 252 24
2003-03-27 09:24:45 51°19.22 2°46.87 262.1 2.2 269 23.9
2003-03-27 09:25:45 51°19.223 2°46.811 268.2 2.2 278 23.9
2003-03-27 09:26:45 51°19.232 2°46.754 282.1 2.3 292 23.9
2003-03-27 09:27:45 51°19.254 2°46.699 293.6 2.4 304 23.9
2003-03-27 09:28:45 51°19.281 2°46.651 307.5 2.6 318 23.7
2003-03-27 09:29:45 51°19.315 2°46.609 316.9 2.8 326 23.7
2003-03-27 09:30:45 51°19.354 2°46.576 325.4 2.8 333 23.2
2003-03-27 09:31:45 51°19.397 2°46.549 334.3 2.8 342 23.3
2003-03-27 09:32:45 51°19.443 2°46.531 341.6 2.9 348 23.2
2003-03-27 09:33:45 51°19.491 2°46.519 348 2.9 354 22.2
2003-03-27 09:34:45 51°19.538 2°46.515 352.6 2.9 357 22.4
2003-03-27 09:35:45 51°19.589 2°46.512 355.1 3   22.1
2003-03-27 09:36:45 51°19.637 2°46.517 0.6 3.1 4 21.9
2003-03-27 09:37:45 51°19.682 2°46.525 4.9 2.5 9 21.7
2003-03-27 09:38:45 51°19.719 2°46.533 3.1 2.1 7 21.6
2003-03-27 09:39:45 51°19.751 2°46.539 1.2 1.9 6 21.2
2003-03-27 09:40:45 51°19.803 2°46.522 328 4.4 336 20.8
2003-03-27 09:41:45 51°19.835 2°46.394 258.7 6.2 262 17.2
2003-03-27 09:42:45 51°19.764 2°46.161 244.2 11.5 244 16.7
2003-03-27 09:43:45 51°19.667 2°45.877 243.9 12.8 241 15.9
2003-03-27 09:44:45 51°19.56 2°45.575 243.6 13.2 241 13.5
2003-03-27 09:45:45 51°19.472 2°45.254 251.1 13.3 248 12.3
2003-03-27 09:46:45 51°19.391 2°44.925 250.4 13.3 248 19
2003-03-27 09:47:45 51°19.309 2°44.593 250.4 13.4 248 23.5
2003-03-27 09:48:45 51°19.227 2°44.262 250.3 13.4 248 24.2
2003-03-27 09:49:45 51°19.144 2°43.934 250 13.2 248 24.7
2003-03-27 09:50:45 51°19.064 2°43.607 249.7 13.3 248 25.2
2003-03-27 09:51:45 51°18.984 2°43.278 250.4 13.5 248 25.7
2003-03-27 09:52:45 51°18.904 2°42.947 249.9 13.3 249 25.9
2003-03-27 09:53:45 51°18.825 2°42.619 250.3 13.3 248 26
2003-03-27 09:54:45 51°18.746 2°42.289 250.8 13.3 249 25.6
2003-03-27 09:55:45 51°18.667 2°41.959 250 13.8 245 24.9
2003-03-27 09:56:45 51°18.586 2°41.631 248.7 13.2 245 24.2
2003-03-27 09:57:45 51°18.499 2°41.307 250.7 13.4 247 22.6
2003-03-27 09:58:45 51°18.413 2°40.983 250.4 13.2 246 19.5
2003-03-27 09:59:45 51°18.326 2°40.657 250.2 13.4 247 17.7
2003-03-27 10:00:45 51°18.237 2°40.326 250.1 13.5 247 17.7
2003-03-27 10:01:45 51°18.15 2°39.997 250 13.1 247 16.2
2003-03-27 10:02:45 51°18.065 2°39.671 250.4 13.5 248 26.7
2003-03-27 10:03:45 51°17.979 2°39.341 250.7 13.5 248 28.8
2003-03-27 10:04:45 51°17.893 2°39.01 250.4 13.4 248 29.2
2003-03-27 10:05:45 51°17.803 2°38.684 247.5 13.5 245 29
2003-03-27 10:06:45 51°17.71 2°38.361 245.6 13.4 244 29.2
2003-03-27 10:07:45 51°17.604 2°38.048 241.6 13.3 239 29
2003-03-27 10:08:45 51°17.483 2°37.749 238 13.5 236 29.1
2003-03-27 10:09:45 51°17.337 2°37.473 229.8 13.4 228 28.9
2003-03-27 10:10:45 51°17.163 2°37.256 215.9 13.5 213 28.9
2003-03-27 10:11:45 51°16.997 2°37.122 206.3 10.4 203 30.4
2003-03-27 10:12:45 51°16.847 2°37.03 210.2 8.3 206 29.6
2003-03-27 10:13:45 51°16.757 2°36.954 209.9 5.1 205 28.7
2003-03-27 10:14:45 51°16.693 2°36.926 193.4 3.4 185 28.2
2003-03-27 10:15:45 51°16.68 2°36.931 169.9 0.6 136 28.3
2003-03-27 10:16:45 51°16.678 2°36.939 160 0.6 127 28.2
2003-03-27 10:17:45 51°16.656 2°36.967 155.3 2.5 142 28.8
2003-03-27 10:18:45 51°16.613 2°37.002 169.1 2.9 157 28.8
2003-03-27 10:19:45 51°16.568 2°37.013 190.8 2.7 181 28.3
2003-03-27 10:20:45 51°16.527 2°37.005 196.3 2.4 188 28.5
2003-03-27 10:21:45 51°16.489 2°36.995 198.4 2.4 191 28.9
2003-03-27 10:22:45 51°16.447 2°36.978 208.3 2.7 202 29
2003-03-27 10:23:45 51°16.405 2°36.951 210.3 2.6 205 28.7
2003-03-27 10:24:45 51°16.367 2°36.919 209.1 2.5 205 29.1
2003-03-27 10:25:45 51°16.332 2°36.893 206.5 2.3 203 28.7
2003-03-27 10:26:45 51°16.298 2°36.869 206.1 2.3 205 29.2
2003-03-27 10:27:45 51°16.263 2°36.847 205.3 2.3 204 29
2003-03-27 10:28:45 51°16.228 2°36.825 202.1 2.3 202 28.6
2003-03-27 10:29:45 51°16.192 2°36.805 202.5 2.2 201 28.3
2003-03-27 10:30:45 51°16.157 2°36.783 202.7 2.3 202 27.6
2003-03-27 10:31:45 51°16.122 2°36.762 204.4 2.3 204 27.6
2003-03-27 10:32:45 51°16.086 2°36.74 206.3 2.3 206 27.8
2003-03-27 10:33:45 51°16.052 2°36.715 207.8 2.2 209 27.1
2003-03-27 10:34:45 51°16.018 2°36.689 208.9 2.3 210 26.7
2003-03-27 10:35:45 51°15.985 2°36.662 208 2.3 209 26.6
2003-03-27 10:36:45 51°15.952 2°36.635 206.3 2.3 207 25.5
2003-03-27 10:37:45 51°15.916 2°36.613 200.2 2.3 199 25.4
2003-03-27 10:38:45 51°15.877 2°36.589 205.8 2.8 205 24.6
2003-03-27 10:39:45 51°15.837 2°36.551 213.8 2.8 213 23.8
2003-03-27 10:40:45 51°15.798 2°36.506 217.8 2.9 217 23.3
2003-03-27 10:41:45 51°15.762 2°36.454 220.9 2.9 221 23.7
2003-03-27 10:42:45 51°15.723 2°36.403 222.6 2.9 224 22.9
2003-03-27 10:43:45 51°15.688 2°36.349 217.3 2.9 218 22.7
2003-03-27 10:44:45 51°15.649 2°36.304 213.8 2.9 215 22.7
2003-03-27 10:45:45 51°15.608 2°36.264 210.5 2.8 211 22.1
2003-03-27 10:46:45 51°15.566 2°36.226 207.2 2.8 208 21.9
2003-03-27 10:47:45 51°15.523 2°36.192 206.4 2.9 207 21.4
2003-03-27 10:48:45 51°15.48 2°36.145 218.9 3.4 219 21.3
2003-03-27 10:49:45 51°15.447 2°36.094 229.3 2.3 232 21
2003-03-27 10:50:45 51°15.432 2°36.05 242.3 1.8 245 21.5
2003-03-27 10:51:45 51°15.419 2°36.007 241.6 1.8 244 21.8
2003-03-27 10:52:45 51°15.4 2°35.971 217.5 1.8 221 22
2003-03-27 10:53:45 51°15.367 2°35.936 209.9 2.9 211 21.9
2003-03-27 10:54:45 51°15.322 2°35.894 210.9 3.1 212 21.7
2003-03-27 10:55:45 51°15.277 2°35.851 212.5 3.3 213 21.8
2003-03-27 10:56:45 51°15.232 2°35.804 213.6 3.3 214 21.1
2003-03-27 10:57:45 51°15.188 2°35.754 216 3.3 216 21.1
2003-03-27 10:58:45 51°15.145 2°35.7 218.7 3.3 220 20.7
2003-03-27 10:59:45 51°15.104 2°35.644 221.9 3.4 222 20.4
2003-03-27 11:00:45 51°15.064 2°35.584 226.3 3.3 227 20.5
2003-03-27 11:01:45 51°15.028 2°35.52 231.7 3.4 231 20.9
2003-03-27 11:02:45 51°14.994 2°35.451 231.1 3.3 231 21.8
2003-03-27 11:03:45 51°14.956 2°35.382 224.2 3.3 225 21.1
2003-03-27 11:04:45 51°14.915 2°35.327 214 3.2 215 21.1
2003-03-27 11:05:45 51°14.871 2°35.277 219.1 3.3 220 21.5
2003-03-27 11:06:45 51°14.83 2°35.221 222.1 3.3 223 21.9
2003-03-27 11:07:45 51°14.788 2°35.161 221.2 3.4 222 21.7
2003-03-27 11:08:45 51°14.745 2°35.102 220.9 3.3 221 21.5
2003-03-27 11:09:45 51°14.702 2°35.041 220.6 3.4 220 21.1
2003-03-27 11:10:45 51°14.66 2°34.98 220.6 3.5 221 21.5
2003-03-27 11:11:45 51°14.617 2°34.922 220.6 3.4 221 22
2003-03-27 11:12:45 51°14.574 2°34.862 221.3 3.4 222 21.9
2003-03-27 11:13:45 51°14.533 2°34.801 223 3.4 224 22.3
2003-03-27 11:14:45 51°14.493 2°34.736 225.5 3.4 226 21.4
2003-03-27 11:15:45 51°14.455 2°34.669 227 3.5 228 22.1
2003-03-27 11:16:45 51°14.417 2°34.6 225.3 3.4 227 22.3
2003-03-27 11:17:45 51°14.376 2°34.535 223.2 3.4 226 22.7
2003-03-27 11:18:45 51°14.336 2°34.473 220.7 3.4 224 22.1
2003-03-27 11:19:45 51°14.295 2°34.415 215.5 3.4 219 22.5
2003-03-27 11:20:45 51°14.25 2°34.364 210.5 3.3 214 21.7
2003-03-27 11:21:45 51°14.204 2°34.311 213.2 3.4 216 22.5
2003-03-27 11:22:45 51°14.161 2°34.254 220.2 3.4 223 22.4
2003-03-27 11:23:45 51°14.123 2°34.192 224.9 3.5 229 22.6
2003-03-27 11:24:45 51°14.082 2°34.121 228.1 3.5 231 22.8
2003-03-27 11:25:45 51°14.05 2°34.046 234.5 3.4 238 23.1
2003-03-27 11:26:45 51°14.03 2°33.972 252.1 2.7 253 23.2
2003-03-27 11:27:45 51°14.023 2°33.908 264.3 2.4 264 23.6
2003-03-27 11:28:45 51°14.023 2°33.849 277 2.2 275 24.3
2003-03-27 11:29:45 51°14.038 2°33.78 309.4 3.3 298 24.6
2003-03-27 11:30:45 51°14.084 2°33.727 1 3.6 347 25.2
2003-03-27 11:31:45 51°14.13 2°33.792 89 4.3 81 24.5
2003-03-27 11:32:45 51°14.142 2°34.018 90.1 11.9 85 23.8
2003-03-27 11:33:45 51°14.162 2°34.364 90 13.5 85 21.9
2003-03-27 11:34:45 51°14.181 2°34.722 89.6 13.6 85 21.5
2003-03-27 11:35:45 51°14.191 2°35.081 92.1 13.5 88 20
2003-03-27 11:36:45 51°14.198 2°35.437 91.4 13.3 86 15.1
2003-03-27 11:37:45 51°14.21 2°35.789 92.3 13.2 87 13
2003-03-27 11:38:45 51°14.218 2°36.141 93.1 13.3 88 12.6
2003-03-27 11:39:45 51°14.224 2°36.489 93.5 13.3 88 12.2
2003-03-27 11:40:45 51°14.229 2°36.837 93.6 13.1 89 13.1
2003-03-27 11:41:45 51°14.234 2°37.182 93.2 13 88 14.2
2003-03-27 11:42:45 51°14.241 2°37.528 93 13.1 88 16.4
2003-03-27 11:43:45 51°14.249 2°37.875 93.3 13.1 88 18.9
2003-03-27 11:44:45 51°14.252 2°38.224 96.3 13.1 91 18.9
2003-03-27 11:45:45 51°14.247 2°38.571 96.5 13.1 91 16.9
2003-03-27 11:46:45 51°14.24 2°38.919 96.7 13.1 92 13.6
2003-03-27 11:47:45 51°14.233 2°39.268 96.5 13.3 92 13.6
2003-03-27 11:48:45 51°14.219 2°39.617 98.6 13.2 95 14.2
2003-03-27 11:49:45 51°14.206 2°39.966 98.1 13.3 94 14.5
2003-03-27 11:50:45 51°14.191 2°40.317 98.3 13.4 95 14.8
2003-03-27 11:51:45 51°14.174 2°40.669 98.4 13.3 94 14.6
2003-03-27 11:52:45 51°14.158 2°41.022 98.3 13.3 93 15.2
2003-03-27 11:53:45 51°14.142 2°41.37 105.1 13 102 16.7
2003-03-27 11:54:45 51°14.122 2°41.631 102.2 8.2 99 17.9
2003-03-27 11:55:45 51°14.106 2°41.808 98.5 5.9 97 18.1
2003-03-27 11:56:45 51°14.106 2°41.888 76.3 1.3 80 18.1
2003-03-27 11:57:45 51°14.109 2°41.912 68.6 0.7 69 18.1
2003-03-27 11:58:45 51°14.113 2°41.929 72.1 1.2 70 18.1
2003-03-27 11:59:45 51°14.13 2°41.988 66.9 2.9 61 18.1
2003-03-27 12:00:45 51°14.147 2°42.066 82.2 3.2 79 17.9
2003-03-27 12:01:45 51°14.153 2°42.152 83.9 3.3 83 17.8
2003-03-27 12:02:45 51°14.162 2°42.232 78.5 3 77 17.7
2003-03-27 12:03:45 51°14.175 2°42.306 71.3 2.9 68 17.7
2003-03-27 12:04:45 51°14.194 2°42.376 67.4 3 61 17.8
2003-03-27 12:05:45 51°14.221 2°42.447 65.4 3.1 59 17.7
2003-03-27 12:06:45 51°14.244 2°42.516 63.5 3.1 59 17.8
2003-03-27 12:07:45 51°14.271 2°42.588 63.3 3.2 59 17.8
2003-03-27 12:08:45 51°14.3 2°42.668 66.4 3.2 63 17.8
2003-03-27 12:09:45 51°14.324 2°42.737 62.4 3.2 58 17.8
2003-03-27 12:10:45 51°14.354 2°42.806 56.2 3.1 51 17.9
2003-03-27 12:11:45 51°14.388 2°42.871 58.5 3.2 53 17.9
2003-03-27 12:12:45 51°14.416 2°42.943 66 3.2 62 18
2003-03-27 12:13:45 51°14.436 2°43.019 70.6 3.2 68 18
2003-03-27 12:14:45 51°14.461 2°43.096 64.4 3.2 61 17.9
2003-03-27 12:15:45 51°14.49 2°43.168 60.1 3.2 55 17.5
2003-03-27 12:16:45 51°14.519 2°43.238 61.3 3.2 57 17.8
2003-03-27 12:17:45 51°14.545 2°43.313 69.7 3.3 65 17.8
2003-03-27 12:18:45 51°14.567 2°43.391 64.5 3.2 62 17.9
2003-03-27 12:19:45 51°14.598 2°43.458 55.1 3.2 50 17.9
2003-03-27 12:20:45 51°14.632 2°43.528 61.6 3.2 56 17.9
2003-03-27 12:21:45 51°14.656 2°43.602 67.6 3.2 64 17.9
2003-03-27 12:22:45 51°14.682 2°43.675 60.8 3.2 56 17.9
2003-03-27 12:23:45 51°14.719 2°43.739 52 3.1 43 17.1
2003-03-27 12:24:45 51°14.757 2°43.799 54.4 3.2 46 17.9
2003-03-27 12:25:45 51°14.791 2°43.865 58.2 3.2 52 18
2003-03-27 12:26:45 51°14.824 2°43.928 56.1 3.2 50 18
2003-03-27 12:27:45 51°14.85 2°44.003 70.6 3.2 65 17.6
2003-03-27 12:28:45 51°14.869 2°44.082 66.3 3.2 61 17.9
2003-03-27 12:29:45 51°14.899 2°44.153 67.9 3.1 64 17.9
2003-03-27 12:30:45 51°14.908 2°44.229 87.3 2.7 86 17.8
2003-03-27 12:31:45 51°14.898 2°44.277 107.9 1.7 123 17.6
2003-03-27 12:32:45 51°14.876 2°44.307 116.6 1.7 142 17.4
2003-03-27 12:33:45 51°14.853 2°44.333 121.4 1.7 148 17.2
2003-03-27 12:34:45 51°14.822 2°44.366 132.8 2.8 147 16.9
2003-03-27 12:35:45 51°14.769 2°44.382 175.5 3.7 186 16.4
2003-03-27 12:36:45 51°14.712 2°44.334 213.3 4 218 16.2
2003-03-27 12:37:45 51°14.663 2°44.265 207.6 3.8 216 16.3
2003-03-27 12:38:45 51°14.61 2°44.225 183.3 3.4 199 16.1
2003-03-27 12:39:45 51°14.553 2°44.202 179.7 3.6 193 15.7
2003-03-27 12:40:45 51°14.495 2°44.176 184.4 3.7 197 15.2
2003-03-27 12:41:45 51°14.438 2°44.145 187.3 3.7 199 14.8
2003-03-27 12:42:45 51°14.378 2°44.114 187.1 3.9 198 14.5
2003-03-27 12:43:45 51°14.313 2°44.07 201 4.4 208 14.1
2003-03-27 12:44:45 51°14.253 2°44.003 214.7 4.5 219 13.8
2003-03-27 12:45:45 51°14.201 2°43.917 231.9 4.5 232 13.7
2003-03-27 12:46:45 51°14.164 2°43.813 246.2 4.5 243 13.7
2003-03-27 12:47:45 51°14.133 2°43.704 247.8 4.6 245 13.9
2003-03-27 12:48:45 51°14.102 2°43.593 251.9 4.6 248 14.1
2003-03-27 12:49:45 51°14.073 2°43.482 251 4.6 247 14.3
2003-03-27 12:50:45 51°14.041 2°43.371 244.6 4.6 244 14.5
2003-03-27 12:51:45 51°14.005 2°43.267 242.8 4.6 242 14.5
2003-03-27 12:52:45 51°13.968 2°43.168 244.1 4.6 243 14.6
2003-03-27 12:53:45 51°13.935 2°43.048 247.3 4.6 244 14.6
2003-03-27 12:54:45 51°13.9 2°42.943 237.2 4.6 238 14.6
2003-03-27 12:55:45 51°13.853 2°42.843 231.5 4.6 232 14.6
2003-03-27 12:56:45 51°13.808 2°42.749 231.7 4.5 233 14.5
2003-03-27 12:57:45 51°13.764 2°42.657 232.1 4.4 234 14.4
2003-03-27 12:58:45 51°13.721 2°42.566 232.2 4.4 233 14.3
2003-03-27 12:59:45 51°13.678 2°42.474 232.9 4.5 235 14.3
2003-03-27 13:00:45 51°13.633 2°42.375 233.1 4.4 234 14.1
2003-03-27 13:01:45 51°13.591 2°42.282 233.7 4.4 234 14
2003-03-27 13:02:45 51°13.551 2°42.188 236.9 4.4 236 14
2003-03-27 13:03:45 51°13.514 2°42.086 247.3 4.4 244 14.1
2003-03-27 13:04:45 51°13.493 2°41.98 267.7 3.8 257 14.2
2003-03-27 13:05:45 51°13.482 2°41.889 280.1 3.4 262 14.4
2003-03-27 13:06:45 51°13.477 2°41.81 287.9 2.8 266 14.5
2003-03-27 13:07:45 51°13.475 2°41.713 274.9 6 266 14.4
2003-03-27 13:08:45 51°13.398 2°41.481 239.8 12 238 14.1
2003-03-27 13:09:45 51°13.284 2°41.198 239.6 13 237 13.6
2003-03-27 13:10:45 51°13.169 2°40.907 239.7 13 237 13.2
2003-03-27 13:11:45 51°13.053 2°40.614 240.5 13.1 238 13.2
2003-03-27 13:12:45 51°12.938 2°40.324 240.2 13 238 12.6
2003-03-27 13:13:45 51°12.822 2°40.031 240.6 13.1 238 13.2
2003-03-27 13:14:45 51°12.707 2°39.738 240.4 13 238 12.7
2003-03-27 13:15:45 51°12.578 2°39.476 221.5 11.8 222 13.2
2003-03-27 13:16:45 51°12.43 2°39.297 215.6 11.1 216 12.9
2003-03-27 13:17:45 51°12.3 2°39.144 215.5 8.7 217 12.8
2003-03-27 13:18:45 51°12.196 2°39.016 215.5 7.6 218 12.6
2003-03-27 13:19:45 51°12.1 2°38.898 215.8 7.3 218 12.5
2003-03-27 13:20:45 51°12.004 2°38.777 218.7 7.4 220 12.2
2003-03-27 13:21:45 51°11.913 2°38.591 240.5 10.3 238 12.1
2003-03-27 13:22:45 51°11.821 2°38.347 241.6 11.5 239 12.6
2003-03-27 13:23:45 51°11.708 2°38.056 242.2 13.4 239 13.2
2003-03-27 13:24:45 51°11.598 2°37.745 244 13.5 241 13.4
2003-03-27 13:25:45 51°11.48 2°37.443 236.6 13.4 234 13.4
2003-03-27 13:26:45 51°11.347 2°37.164 234.2 13.4 232 13.2
2003-03-27 13:27:45 51°11.212 2°36.885 235 13.4 233 12.7
2003-03-27 13:28:45 51°11.064 2°36.609 229.7 13.5 228 11.9
2003-03-27 13:29:45 51°10.895 2°36.368 218.4 13.3 218 11.5
2003-03-27 13:30:45 51°10.708 2°36.181 207.7 13.2 208 10.8
2003-03-27 13:31:45 51°10.515 2°36.022 208.1 12.9 207 10.4
2003-03-27 13:32:45 51°10.324 2°35.861 208.9 12.9 208 10.2
2003-03-27 13:33:45 51°10.136 2°35.703 208.5 12.6 208 11.2
2003-03-27 13:34:45 51°9.975 2°35.556 209 10.8 210 16.1
2003-03-27 13:35:45 51°9.82 2°35.414 208.8 10.6 210 18.2
2003-03-27 13:36:45 51°9.693 2°35.304 200.8 7.8 205 18.5
2003-03-27 13:37:45 51°9.594 2°35.256 186 5.6 195 18.5
2003-03-27 13:38:45 51°9.515 2°35.211 196.6 5 205 18.2
2003-03-27 13:39:45 51°9.444 2°35.161 183.3 4.3 200 18
2003-03-27 13:40:45 51°9.38 2°35.134 175.1 3.9 192 17.5
2003-03-27 13:41:45 51°9.32 2°35.116 168.1 3.4 190 16.8
2003-03-27 13:42:45 51°9.284 2°35.099 158.2 1.4 237 17
2003-03-27 13:43:45 51°9.265 2°35.066 149.5 1.4 231 17
2003-03-27 13:44:45 51°9.25 2°35.048 134.2 1.4 184 16.8
2003-03-27 13:45:45 51°9.218 2°35.064 140.9 2.4 160 16.4
2003-03-27 13:46:45 51°9.163 2°35.055 180 3.9 196 16
2003-03-27 13:47:45 51°9.103 2°35.001 208.1 3.9 219 16.6
2003-03-27 13:48:45 51°9.06 2°34.927 223.1 3.8 231 16.3
2003-03-27 13:49:45 51°9.022 2°34.851 220.9 3.6 230 16.3
2003-03-27 13:50:45 51°8.982 2°34.782 214.1 3.7 226 16.7
2003-03-27 13:51:45 51°8.938 2°34.707 217.2 3.8 227 16.3
2003-03-27 13:52:45 51°8.897 2°34.631 222 3.9 230 16.4
2003-03-27 13:53:45 51°8.857 2°34.552 221.9 3.9 230 16.5
2003-03-27 13:54:45 51°8.813 2°34.47 221.3 3.9 230 16.4
2003-03-27 13:55:45 51°8.77 2°34.389 222.5 4 231 16.5
2003-03-27 13:56:45 51°8.73 2°34.309 222 4 232 16.3
2003-03-27 13:57:45 51°8.687 2°34.228 220.6 3.9 231 16.6
2003-03-27 13:58:45 51°8.642 2°34.146 221.3 4.1 230 16.6
2003-03-27 13:59:45 51°8.601 2°34.062 221.9 4 231 16.6
2003-03-27 14:00:45 51°8.557 2°33.981 222.4 4.1 230 16.5
2003-03-27 14:01:45 51°8.513 2°33.899 221.3 4 229 16.3
2003-03-27 14:02:45 51°8.471 2°33.816 224.4 4 230 16.3
2003-03-27 14:03:45 51°8.429 2°33.737 224.4 4 230 16.3
2003-03-27 14:04:45 51°8.385 2°33.653 227 4 231 16.4
2003-03-27 14:05:45 51°8.342 2°33.572 229 4 232 16.4
2003-03-27 14:06:45 51°8.302 2°33.492 224.9 3.9 230 16.3
2003-03-27 14:07:45 51°8.258 2°33.413 224.7 4 228 16.1
2003-03-27 14:08:45 51°8.216 2°33.335 229.6 4 231 16
2003-03-27 14:09:45 51°8.175 2°33.254 229.5 3.9 230 16
2003-03-27 14:10:45 51°8.134 2°33.172 227.9 4 229 15.6
2003-03-27 14:11:45 51°8.089 2°33.094 229.2 4 229 15.4
2003-03-27 14:12:45 51°8.052 2°33.008 245 4 239 15.1
2003-03-27 14:13:45 51°8.024 2°32.914 258 4 247 14.9
2003-03-27 14:14:45 51°7.999 2°32.816 264.1 3.9 251 14.9
2003-03-27 14:15:45 51°7.985 2°32.719 277.2 3.8 258 14.7
2003-03-27 14:16:45 51°7.977 2°32.624 283.3 3.6 264 15.3
2003-03-27 14:17:45 51°7.971 2°32.543 295.2 3 263 15.9
2003-03-27 14:18:45 51°7.969 2°32.473 306.8 2.6 269 16.1
2003-03-27 14:19:45 51°7.969 2°32.404 311.8 2.6 272 16
2003-03-27 14:20:45 51°7.974 2°32.336 315 2.9 277 15.9
2003-03-27 14:21:45 51°7.986 2°32.252 314.8 3.4 283 15.5
2003-03-27 14:22:45 51°8.005 2°32.172 326.1 3.4 296 16.1
2003-03-27 14:23:45 51°8.028 2°32.101 339.5 3 305 17.8
2003-03-27 14:24:45 51°8.061 2°32.047 354.4 2.8 320 18.1
2003-03-27 14:25:45 51°8.097 2°32.014 13 2.4 341 18.7
2003-03-27 14:26:45 51°8.134 2°32.012 31.8 2.2 8 19.2
2003-03-27 14:27:45 51°8.169 2°32.028 37.5 2.2 18 19.3
2003-03-27 14:28:45 51°8.205 2°32.047 38.4 2.3 20 18.9
2003-03-27 14:29:45 51°8.235 2°32.075 47.5 2.2 35 18.8
2003-03-27 14:30:45 51°8.264 2°32.109 42.8 2.3 31 19
2003-03-27 14:31:45 51°8.301 2°32.133 36.3 2.5 21 19.1
2003-03-27 14:32:45 51°8.334 2°32.167 48.7 2.4 38 19
2003-03-27 14:33:45 51°8.369 2°32.189 29.1 2.4 9 18.9
2003-03-27 14:34:45 51°8.411 2°32.201 32.3 2.6 14 18.9
2003-03-27 14:35:45 51°8.449 2°32.227 37.7 2.5 22 18.9
2003-03-27 14:36:45 51°8.49 2°32.248 34.5 2.6 17 18.7
2003-03-27 14:37:45 51°8.53 2°32.269 35.2 2.5 18 18.4
2003-03-27 14:38:45 51°8.571 2°32.286 32.6 2.6 14 18.4
2003-03-27 14:39:45 51°8.61 2°32.31 48.7 2.4 34 18.5
2003-03-27 14:40:45 51°8.633 2°32.355 59.8 2.2 55 18.6
2003-03-27 14:41:45 51°8.65 2°32.406 66.5 2.2 67 18.7
2003-03-27 14:42:45 51°8.663 2°32.461 66.4 2.2 69 18.6
2003-03-27 14:43:45 51°8.68 2°32.515 60.6 2.2 58 18.5
2003-03-27 14:44:45 51°8.697 2°32.562 65.1 2.2 64 18.5
2003-03-27 14:45:45 51°8.71 2°32.616 68.8 2.2 74 18.5
2003-03-27 14:46:45 51°8.723 2°32.67 65.4 2.1 67 18.5
2003-03-27 14:47:45 51°8.741 2°32.72 63.1 2.1 62 18.4
2003-03-27 14:48:45 51°8.756 2°32.769 66.1 2.2 67 18.4
2003-03-27 14:49:46 51°8.769 2°32.822 66.1 2.1 68 18.2
2003-03-27 14:50:45 51°8.781 2°32.877 71.4 2.2 76 18.1
2003-03-27 14:51:45 51°8.778 2°32.93 90 1.7 113 18.1
2003-03-27 14:52:45 51°8.761 2°32.959 99.4 1.5 138 18
2003-03-27 14:53:45 51°8.744 2°32.977 96.8 1.1 157 18
2003-03-27 14:54:45 51°8.726 2°32.989 95 1.4 138 18.1
2003-03-27 14:55:45 51°8.709 2°33.066 94.9 5 101 18.2
2003-03-27 14:56:45 51°8.696 2°33.265 90.9 8.7 92 17.4
2003-03-27 14:57:45 51°8.747 2°33.53 67.2 11.9 62 16.1
2003-03-27 14:58:45 51°8.851 2°33.816 65 12.3 60 15
2003-03-27 14:59:45 51°8.928 2°34.114 74.3 12.4 72 15.1
2003-03-27 15:00:45 51°8.992 2°34.424 74.8 12.4 72 15.8
2003-03-27 15:01:45 51°9.056 2°34.736 75.2 12.5 72 15.8
2003-03-27 15:02:45 51°9.121 2°35.049 75.4 12.4 72 15.8
2003-03-27 15:03:45 51°9.186 2°35.358 75.3 12.3 71 15.6
2003-03-27 15:04:45 51°9.252 2°35.666 75.4 12.3 71 15.5
2003-03-27 15:05:45 51°9.319 2°35.974 75.3 12.3 71 15.6
2003-03-27 15:06:45 51°9.387 2°36.285 75.3 12.3 71 15.7
2003-03-27 15:07:45 51°9.454 2°36.594 75.3 12.4 71 15
2003-03-27 15:08:45 51°9.522 2°36.902 75.4 12.4 71 15.4
2003-03-27 15:09:45 51°9.59 2°37.211 75.2 12.4 71 15.5
2003-03-27 15:10:46 51°9.659 2°37.525 75.2 12.4 70 14.8
2003-03-27 15:11:45 51°9.727 2°37.827 75 12.4 70 14.3
2003-03-27 15:12:45 51°9.796 2°38.141 75.6 12.4 71 13.9
2003-03-27 15:13:45 51°9.865 2°38.452 75.5 12.3 71 13.5
2003-03-27 15:14:45 51°9.931 2°38.757 75.5 12.4 71 13
2003-03-27 15:15:45 51°10.001 2°39.064 75.3 12.3 71 12.7
2003-03-27 15:16:45 51°10.068 2°39.374 75.2 12.3 70 12.3
2003-03-27 15:17:45 51°10.135 2°39.686 75 12.3 70 12
2003-03-27 15:18:45 51°10.202 2°39.99 75.3 12.3 71 11.8
2003-03-27 15:19:45 51°10.268 2°40.295 75.4 12.3 71 11.6
2003-03-27 15:20:45 51°10.334 2°40.603 75.1 12.3 71 11.5
2003-03-27 15:21:45 51°10.399 2°40.915 75.2 12.3 71 11.4
2003-03-27 15:22:45 51°10.466 2°41.224 75.4 12.3 71 11.2
2003-03-27 15:23:45 51°10.545 2°41.519 69.7 12.3 65 11.3
2003-03-27 15:24:45 51°10.633 2°41.816 70.3 12.4 66 11.4
2003-03-27 15:25:46 51°10.717 2°42.12 72 12.4 68 11.4
2003-03-27 15:26:45 51°10.792 2°42.423 73.3 12.5 69 11.5
2003-03-27 15:27:45 51°10.862 2°42.731 73.1 12.5 69 11.6
2003-03-27 15:28:45 51°10.936 2°43.041 73.3 12.6 69 11.6
2003-03-27 15:29:46 51°11.011 2°43.36 73.2 12.5 70 11.6
2003-03-27 15:30:45 51°11.083 2°43.666 73.3 12.5 69 11.7
2003-03-27 15:31:45 51°11.157 2°43.974 73.5 12.6 70 11.7
2003-03-27 15:32:45 51°11.226 2°44.284 74.2 12.5 71 11.8
2003-03-27 15:33:45 51°11.295 2°44.598 74.2 12.5 71 11.7
2003-03-27 15:34:45 51°11.364 2°44.91 74.6 12.5 71 11.7
2003-03-27 15:35:45 51°11.431 2°45.222 74 12.5 71 11.7
2003-03-27 15:36:46 51°11.5 2°45.542 74.7 12.5 71 11.7
2003-03-27 15:37:45 51°11.564 2°45.851 74 12.5 71 11.6
2003-03-27 15:38:46 51°11.641 2°46.162 70.2 12.5 66 11.7
2003-03-27 15:39:46 51°11.724 2°46.466 68.5 12.5 65 11.6
2003-03-27 15:40:46 51°11.814 2°46.762 68 12.4 64 11.6
2003-03-27 15:41:46 51°11.904 2°47.058 68.2 12.3 65 11.6
2003-03-27 15:42:45 51°11.991 2°47.351 68.5 12.5 65 11.6
2003-03-27 15:43:45 51°12.095 2°47.633 59.7 12.4 55 11.6
2003-03-27 15:44:45 51°12.206 2°47.908 64.3 12.4 60 11.7
2003-03-27 15:45:45 51°12.306 2°48.189 63.9 12.3 60 11.7
2003-03-27 15:46:45 51°12.41 2°48.47 63.8 12.5 59 11.6
2003-03-27 15:47:45 51°12.513 2°48.759 64.3 12.7 60 11.6
2003-03-27 15:48:45 51°12.618 2°49.044 64.3 12.7 60 11.4
2003-03-27 15:49:45 51°12.722 2°49.334 64.3 12.5 60 11.4
2003-03-27 15:50:45 51°12.824 2°49.616 64.5 12.9 61 11.2
2003-03-27 15:51:45 51°12.926 2°49.907 64.4 12.5 60 11.1
2003-03-27 15:52:45 51°13.03 2°50.194 64.2 12.6 60 11
2003-03-27 15:53:45 51°13.134 2°50.483 64 12.6 60 10.9
2003-03-27 15:54:45 51°13.238 2°50.773 64.1 12.8 61 10.8
2003-03-27 15:55:45 51°13.338 2°51.069 64.4 12.7 61 10.7
2003-03-27 15:56:45 51°13.443 2°51.357 64.5 12.7 60 10.7
2003-03-27 15:57:45 51°13.545 2°51.651 64.5 11.4 61 10.5
2003-03-27 15:58:45 51°13.646 2°51.944 64.5 12.7 62 10.3
2003-03-27 15:59:45 51°13.75 2°52.238 64 12.7 60 10.3
2003-03-27 16:00:45 51°13.851 2°52.53 63.9 12.5 61 10.2
2003-03-27 16:01:45 51°13.951 2°52.82 64.2 12.5 61 10.1
2003-03-27 16:02:45 51°14.055 2°53.106 64.3 12.5 61 9.7
2003-03-27 16:03:45 51°14.152 2°53.398 64.3 12.4 61 9.3
2003-03-27 16:04:45 51°14.22 2°53.611 66.2 6.6 64 9.4
2003-03-27 16:05:45 51°14.258 2°53.724 62 3.9 61 14.9
2003-03-27 16:06:45 51°14.279 2°53.801 66.1 2.7 68 14.9
2003-03-27 16:07:45 51°14.293 2°53.853 63.3 1.9 65 14.8
2003-03-27 16:08:45 51°14.302 2°53.894 64.5 1.5 72 14.8
2003-03-27 16:09:45 51°14.308 2°53.924 64.5 1.3 72 14.8
2003-03-27 16:10:45 51°14.313 2°53.956 63.1 1.1 77 14.8
2003-03-27 16:11:45 51°14.316 2°53.987 65 1.1 76 14.7
2003-03-27 16:12:45 51°14.317 2°54.014 66 1 84 14.6
2003-03-27 16:13:45 51°14.319 2°54.037 63.3 0.9 80 14.7
2003-03-27 16:14:45 51°14.322 2°54.062 63.7 0.9 81 14.5
2003-03-27 16:15:45 51°14.322 2°54.086 66 0.8 87 14.6
2003-03-27 16:16:45 51°14.325 2°54.109 63.4 0.8 76 14.6
2003-03-27 16:17:45 51°14.328 2°54.13 62.7 0.8 76 14.6
2003-03-27 16:18:45 51°14.332 2°54.152 63.7 0.9 75 14.5
2003-03-27 16:19:45 51°14.336 2°54.18 64.1 0.9 75 14.5
2003-03-27 16:20:45 51°14.343 2°54.214 64.6 2 68 14.6
2003-03-27 16:21:45 51°14.363 2°54.28 63.6 3.2 63 14.7
2003-03-27 16:22:45 51°14.39 2°54.366 65.7 4.1 63 15
2003-03-27 16:23:45 51°14.411 2°54.462 73.8 3.8 74 16.6
2003-03-27 16:24:45 51°14.416 2°54.554 88.3 3.6 93 17.6
2003-03-27 16:25:45 51°14.405 2°54.647 95.1 3.5 100 10.6
2003-03-27 16:26:45 51°14.388 2°54.733 98.3 3.4 108 10.4
2003-03-27 16:27:45 51°14.374 2°54.822 97.4 3.7 102 10.4
2003-03-27 16:28:45 51°14.365 2°54.909 96.9 3.4 101 9.8
2003-03-27 16:29:45 51°14.354 2°55.011 98.5 4.3 100 9.6
2003-03-27 16:30:45 51°14.338 2°55.127 114.8 4.6 110 10
2003-03-27 16:31:45 51°14.286 2°55.224 138 4.6 135 10.1
2003-03-27 16:32:45 51°14.239 2°55.314 138.9 4.4 132 10
2003-03-27 16:33:45 51°14.18 2°55.387 151 4.3 146 9.8